createdAt,value
2023-03-21T00:01:51.457Z,53.94
2023-03-21T00:04:18.181Z,54.24
2023-03-21T00:06:44.900Z,53.86
2023-03-21T00:09:12.270Z,54.34
2023-03-21T00:11:38.983Z,54.19
2023-03-21T00:14:08.514Z,55.99
2023-03-21T00:16:37.133Z,56.92
2023-03-21T00:19:07.430Z,57.35
2023-03-21T00:21:51.929Z,57.76
2023-03-21T00:24:23.315Z,57.96
2023-03-21T00:26:50.984Z,58.08
2023-03-21T00:29:20.657Z,57.91
2023-03-21T00:31:47.262Z,58.24
2023-03-21T00:34:14.146Z,58.61
2023-03-21T00:36:40.986Z,58.82
2023-03-21T00:39:08.080Z,58.90
2023-03-21T00:41:42.594Z,58.79
2023-03-21T00:44:15.613Z,58.83
2023-03-21T00:47:00.545Z,58.80
2023-03-21T00:49:33.684Z,59.36
2023-03-21T00:52:15.125Z,58.61
2023-03-21T00:54:45.622Z,58.94
2023-03-21T00:57:12.259Z,58.73
2023-03-21T00:59:39.041Z,59.60
2023-03-21T01:02:07.454Z,58.77
2023-03-21T01:04:34.482Z,59.25
2023-03-21T01:07:01.199Z,59.08
2023-03-21T01:09:28.022Z,59.26
2023-03-21T01:11:54.745Z,59.63
2023-03-21T01:14:23.792Z,59.85
2023-03-21T01:16:53.021Z,59.80
2023-03-21T01:19:27.382Z,59.57
2023-03-21T01:21:57.168Z,60.04
2023-03-21T01:24:24.507Z,60.02
2023-03-21T01:26:51.166Z,60.17
2023-03-21T01:29:17.998Z,60.28
2023-03-21T01:31:45.016Z,60.14
2023-03-21T01:34:12.059Z,60.52
2023-03-21T01:36:39.098Z,60.86
2023-03-21T01:39:09.734Z,60.78
2023-03-21T01:41:43.405Z,60.30
2023-03-21T01:44:19.759Z,60.68
2023-03-21T01:49:41.545Z,61.57
2023-03-21T01:52:29.757Z,61.16
2023-03-21T01:55:03.798Z,60.85
2023-03-21T01:57:52.150Z,60.25
2023-03-21T02:00:25.956Z,59.70
2023-03-21T02:03:15.283Z,59.82
2023-03-21T02:06:02.357Z,59.53
2023-03-21T02:08:39.725Z,60.01
2023-03-21T02:11:11.264Z,60.32
2023-03-21T02:13:42.237Z,60.83
2023-03-21T02:16:22.753Z,61.29
2023-03-21T02:19:17.700Z,61.52
2023-03-21T02:22:12.073Z,61.32
2023-03-21T02:25:21.753Z,60.90
2023-03-21T02:27:56.881Z,61.16
2023-03-21T02:30:51.345Z,61.48
2023-03-21T02:34:01.491Z,61.38
2023-03-21T02:36:38.047Z,61.15
2023-03-21T02:39:07.861Z,61.03
2023-03-21T02:42:01.958Z,60.96
2023-03-21T02:45:02.009Z,60.69
2023-03-21T02:47:57.617Z,60.37
2023-03-21T02:50:43.567Z,60.66
2023-03-21T02:53:13.084Z,60.79
2023-03-21T02:55:43.770Z,61.01
2023-03-21T02:58:13.855Z,60.76
2023-03-21T03:00:47.490Z,60.91
2023-03-21T03:03:34.024Z,61.30
2023-03-21T03:06:07.743Z,61.47
2023-03-21T03:08:59.761Z,61.67
2023-03-21T03:11:36.520Z,61.86
2023-03-21T03:14:32.188Z,61.61
2023-03-21T03:17:12.689Z,61.56
2023-03-21T03:20:02.025Z,61.40
2023-03-21T03:22:59.258Z,60.71
2023-03-21T03:25:42.055Z,60.64
2023-03-21T03:28:11.477Z,59.89
2023-03-21T03:30:46.585Z,59.99
2023-03-21T03:33:23.642Z,59.70
2023-03-21T03:36:04.455Z,59.39
2023-03-21T03:38:36.600Z,59.94
2023-03-21T03:41:12.497Z,60.28
2023-03-21T03:43:52.226Z,60.43
2023-03-21T03:46:25.588Z,60.57
2023-03-21T03:48:57.153Z,60.18
2023-03-21T03:51:28.916Z,59.70
2023-03-21T03:54:32.187Z,59.86
2023-03-21T03:57:01.245Z,59.59
2023-03-21T03:59:27.915Z,59.63
2023-03-21T04:02:17.504Z,60.04
2023-03-21T04:04:44.653Z,59.93
2023-03-21T04:07:11.541Z,60.07
2023-03-21T04:09:44.517Z,60.18
2023-03-21T04:12:14.432Z,60.07
2023-03-21T04:14:50.527Z,60.24
2023-03-21T04:17:19.265Z,60.44
2023-03-21T04:19:47.918Z,60.25
2023-03-21T04:22:15.467Z,60.08
2023-03-21T04:24:44.068Z,59.89
2023-03-21T04:27:11.012Z,59.89
2023-03-21T04:29:42.276Z,60.69
2023-03-21T04:32:28.064Z,60.59
2023-03-21T04:35:08.352Z,60.66
2023-03-21T04:37:36.022Z,60.72
2023-03-21T04:40:07.703Z,60.69
2023-03-21T04:42:35.139Z,61.09
2023-03-21T04:45:02.415Z,60.86
2023-03-21T04:47:29.266Z,60.85
2023-03-21T04:49:57.285Z,61.03
2023-03-21T04:52:25.489Z,61.12
2023-03-21T04:54:52.551Z,61.18
2023-03-21T04:57:19.832Z,61.47
2023-03-21T04:59:46.845Z,61.11
2023-03-21T05:02:14.857Z,61.37
2023-03-21T05:04:43.425Z,61.11
2023-03-21T05:07:10.444Z,61.25
2023-03-21T05:09:37.674Z,61.19
2023-03-21T05:12:04.727Z,61.33
2023-03-21T05:14:32.975Z,61.25
2023-03-21T05:17:01.657Z,61.47
2023-03-21T05:19:40.608Z,60.95
2023-03-21T05:22:10.230Z,61.40
2023-03-21T05:24:41.859Z,61.31
2023-03-21T05:27:14.189Z,61.55
2023-03-21T05:29:44.926Z,61.92
2023-03-21T05:32:11.694Z,61.85
2023-03-21T05:34:39.012Z,61.54
2023-03-21T05:37:05.925Z,61.38
2023-03-21T05:39:46.294Z,61.19
2023-03-21T05:42:21.073Z,62.06
2023-03-21T05:44:48.996Z,62.12
2023-03-21T05:47:18.431Z,62.81
2023-03-21T05:49:47.241Z,63.41
2023-03-21T05:52:14.687Z,63.65
2023-03-21T05:54:41.588Z,62.68
2023-03-21T05:57:08.492Z,62.61
2023-03-21T05:59:57.649Z,62.80
2023-03-21T06:02:24.327Z,61.82
2023-03-21T06:04:51.407Z,61.09
2023-03-21T06:07:21.263Z,61.75
2023-03-21T06:09:48.071Z,62.04
2023-03-21T06:12:14.847Z,61.99
2023-03-21T06:15:01.748Z,62.35
2023-03-21T06:17:32.267Z,62.47
2023-03-21T06:20:05.124Z,62.16
2023-03-21T06:22:37.297Z,62.26
2023-03-21T06:25:05.520Z,62.13
2023-03-21T06:27:32.497Z,61.57
2023-03-21T06:30:06.773Z,61.44
2023-03-21T06:32:38.762Z,62.13
2023-03-21T06:35:10.201Z,62.14
2023-03-21T06:37:38.396Z,61.40
2023-03-21T06:40:07.220Z,60.88
2023-03-21T06:42:34.004Z,60.73
2023-03-21T06:45:07.466Z,59.53
2023-03-21T06:47:34.161Z,59.80
2023-03-21T06:50:03.385Z,59.13
2023-03-21T06:52:33.062Z,59.39
2023-03-21T06:54:59.673Z,59.41
2023-03-21T06:57:26.347Z,59.29
2023-03-21T06:59:53.089Z,59.28
2023-03-21T07:02:21.729Z,59.87
2023-03-21T07:05:00.899Z,60.25
2023-03-21T07:07:29.735Z,59.08
2023-03-21T07:09:56.705Z,59.23
2023-03-21T07:12:24.552Z,58.79
2023-03-21T07:15:08.966Z,58.13
2023-03-21T07:17:36.952Z,58.96
2023-03-21T07:20:07.911Z,58.18
2023-03-21T07:22:35.951Z,58.49
2023-03-21T07:25:05.377Z,58.28
2023-03-21T07:27:40.792Z,58.34
2023-03-21T07:30:10.116Z,57.91
2023-03-21T07:32:37.871Z,57.71
2023-03-21T07:35:07.099Z,58.21
2023-03-21T07:37:33.848Z,57.87
2023-03-21T07:40:00.568Z,56.65
2023-03-21T07:42:27.306Z,56.16
2023-03-21T07:44:59.536Z,56.01
2023-03-21T07:47:31.848Z,55.24
2023-03-21T07:49:59.027Z,55.34
2023-03-21T07:52:25.746Z,54.64
2023-03-21T07:54:52.351Z,54.78
2023-03-21T07:57:19.054Z,54.08
2023-03-21T07:59:45.822Z,54.95
2023-03-21T08:02:17.199Z,54.72
2023-03-21T08:04:44.074Z,54.43
2023-03-21T08:07:11.615Z,54.92
2023-03-21T08:09:38.330Z,55.94
2023-03-21T08:12:05.838Z,55.35
2023-03-21T08:14:33.168Z,55.73
2023-03-21T08:17:00.341Z,55.49
2023-03-21T08:19:27.079Z,54.97
2023-03-21T08:21:53.772Z,54.35
2023-03-21T08:24:20.567Z,53.52
2023-03-21T08:26:47.281Z,52.38
2023-03-21T08:29:13.894Z,52.17
2023-03-21T08:31:41.356Z,52.56
2023-03-21T08:34:08.415Z,52.67
2023-03-21T08:36:37.940Z,52.41
2023-03-21T08:39:05.559Z,51.99
2023-03-21T08:41:37.080Z,51.83
2023-03-21T08:44:06.592Z,50.87
2023-03-21T08:46:33.777Z,51.21
2023-03-21T08:49:00.602Z,51.90
2023-03-21T08:51:27.475Z,51.48
2023-03-21T08:53:54.114Z,50.66
2023-03-21T08:56:21.017Z,50.50
2023-03-21T08:58:49.662Z,49.69
2023-03-21T09:01:16.413Z,49.79
2023-03-21T09:03:43.586Z,49.68
2023-03-21T09:06:13.573Z,48.41
2023-03-21T09:08:41.844Z,47.93
2023-03-21T09:11:10.050Z,47.42
2023-03-21T09:13:36.832Z,47.59
2023-03-21T09:16:05.212Z,46.66
2023-03-21T09:18:49.004Z,46.87
2023-03-21T09:21:20.305Z,46.86
2023-03-21T09:23:48.314Z,45.53
2023-03-21T09:26:16.170Z,45.82
2023-03-21T09:28:42.958Z,46.10
2023-03-21T09:31:11.868Z,45.71
2023-03-21T09:33:43.154Z,45.07
2023-03-21T09:36:19.192Z,44.26
2023-03-21T09:38:47.458Z,44.49
2023-03-21T09:41:32.759Z,45.14
2023-03-21T09:44:17.904Z,44.31
2023-03-21T09:46:52.611Z,45.09
2023-03-21T09:49:31.203Z,46.05
2023-03-21T09:52:06.493Z,46.02
2023-03-21T09:54:37.817Z,46.45
2023-03-21T09:57:15.262Z,46.46
2023-03-21T09:59:43.437Z,46.13
2023-03-21T10:02:32.311Z,46.54
2023-03-21T10:05:00.524Z,47.00
2023-03-21T10:07:31.890Z,47.38
2023-03-21T10:10:04.378Z,47.82
2023-03-21T10:12:31.299Z,47.27
2023-03-21T10:15:01.564Z,47.73
2023-03-21T10:17:41.105Z,47.81
2023-03-21T10:20:40.608Z,49.55
2023-03-21T10:23:13.658Z,49.72
2023-03-21T10:25:43.317Z,51.89
2023-03-21T10:28:17.081Z,52.19
2023-03-21T10:30:51.658Z,54.75
2023-03-21T10:33:27.682Z,54.51
2023-03-21T10:36:01.193Z,55.75
2023-03-21T10:38:28.498Z,56.03
2023-03-21T10:40:55.942Z,56.16
2023-03-21T10:43:25.518Z,57.82
2023-03-21T10:45:53.893Z,57.37
2023-03-21T10:48:21.461Z,59.05
2023-03-21T10:50:51.724Z,58.31
2023-03-21T10:53:28.216Z,56.74
2023-03-21T10:55:59.057Z,58.48
2023-03-21T10:58:33.338Z,58.10
2023-03-21T11:01:06.769Z,57.21
2023-03-21T11:03:38.464Z,58.77
2023-03-21T11:06:14.261Z,57.16
2023-03-21T11:08:48.681Z,57.11
2023-03-21T11:11:34.455Z,57.51
2023-03-21T11:14:06.971Z,57.80
2023-03-21T11:16:44.254Z,58.25
2023-03-21T11:19:20.396Z,54.34
2023-03-21T11:21:47.320Z,57.56
2023-03-21T11:24:17.387Z,55.64
2023-03-21T11:26:48.046Z,56.83
2023-03-21T11:29:41.219Z,58.06
2023-03-21T11:32:12.561Z,55.43
2023-03-21T11:34:53.106Z,55.02
2023-03-21T11:37:20.729Z,56.01
2023-03-21T11:39:47.470Z,56.52
2023-03-21T11:42:42.890Z,56.12
2023-03-21T11:45:17.638Z,55.78
2023-03-21T11:47:46.186Z,57.39
2023-03-21T11:50:39.698Z,54.58
2023-03-21T11:53:39.488Z,58.13
2023-03-21T11:56:27.280Z,56.09
2023-03-21T11:59:16.573Z,56.49
2023-03-21T12:02:08.989Z,56.13
2023-03-21T12:04:53.828Z,54.26
2023-03-21T12:07:38.958Z,54.43
2023-03-21T12:10:28.830Z,54.33
2023-03-21T12:13:16.575Z,55.54
2023-03-21T12:15:55.627Z,53.51
2023-03-21T12:18:59.253Z,54.51
2023-03-21T12:21:54.960Z,55.29
2023-03-21T12:24:57.278Z,52.79
2023-03-21T12:28:02.763Z,53.14
2023-03-21T12:30:42.838Z,53.48
2023-03-21T12:33:46.763Z,52.23
2023-03-21T12:36:28.170Z,52.16
2023-03-21T12:39:09.900Z,53.00
2023-03-21T12:41:56.183Z,51.86
2023-03-21T12:44:26.360Z,52.55
2023-03-21T12:47:06.832Z,51.58
2023-03-21T12:49:42.485Z,52.04
2023-03-21T12:52:18.736Z,51.72
2023-03-21T12:55:07.307Z,51.37
2023-03-21T12:57:47.768Z,50.79
2023-03-21T13:00:27.212Z,50.88
2023-03-21T13:02:59.888Z,51.33
2023-03-21T13:05:38.182Z,50.85
2023-03-21T13:08:22.094Z,51.37
2023-03-21T13:10:48.880Z,50.40
2023-03-21T13:13:21.455Z,50.49
2023-03-21T13:15:59.122Z,51.82
2023-03-21T13:18:30.629Z,51.47
2023-03-21T13:21:01.622Z,50.78
2023-03-21T13:23:36.917Z,51.46
2023-03-21T13:26:08.007Z,51.56
2023-03-21T13:28:36.184Z,51.10
2023-03-21T13:31:26.905Z,51.32
2023-03-21T13:33:58.818Z,51.51
2023-03-21T13:36:28.841Z,50.40
2023-03-21T13:39:02.591Z,50.79
2023-03-21T13:41:36.997Z,50.76
2023-03-21T13:44:03.655Z,50.58
2023-03-21T13:46:35.868Z,51.48
2023-03-21T13:49:09.996Z,51.74
2023-03-21T13:51:36.575Z,51.25
2023-03-21T13:54:04.249Z,52.55
2023-03-21T13:56:52.502Z,51.55
2023-03-21T13:59:38.390Z,52.74
2023-03-21T14:02:09.451Z,51.35
2023-03-21T14:04:42.552Z,50.58
2023-03-21T14:07:32.643Z,51.74
2023-03-21T14:10:06.854Z,51.51
2023-03-21T14:12:44.288Z,51.32
2023-03-21T14:15:20.797Z,51.62
2023-03-21T14:17:55.544Z,50.40
2023-03-21T14:20:32.140Z,50.44
2023-03-21T14:22:59.225Z,50.87
2023-03-21T14:25:37.172Z,50.37
2023-03-21T14:28:17.834Z,50.75
2023-03-21T14:30:45.564Z,50.28
2023-03-21T14:33:35.031Z,50.70
2023-03-21T14:36:08.846Z,50.86
2023-03-21T14:38:39.161Z,49.81
2023-03-21T14:41:25.874Z,49.73
2023-03-21T14:44:26.545Z,49.70
2023-03-21T14:47:17.335Z,49.73
2023-03-21T14:49:44.354Z,49.52
2023-03-21T14:52:19.426Z,49.21
2023-03-21T14:54:48.076Z,49.50
2023-03-21T14:57:20.648Z,49.82
2023-03-21T14:59:51.855Z,49.52
2023-03-21T15:02:23.633Z,49.44
2023-03-21T15:04:54.307Z,49.85
2023-03-21T15:07:38.909Z,49.26
2023-03-21T15:10:18.031Z,48.77
2023-03-21T15:12:52.358Z,49.02
2023-03-21T15:15:20.145Z,49.20
2023-03-21T15:17:47.558Z,48.96
2023-03-21T15:20:16.367Z,49.48
2023-03-21T15:22:52.738Z,48.74
2023-03-21T15:25:27.524Z,48.87
2023-03-21T15:27:55.275Z,48.68
2023-03-21T15:30:28.033Z,48.95
2023-03-21T15:32:56.568Z,49.29
2023-03-21T15:35:39.063Z,49.47
2023-03-21T15:38:06.804Z,49.27
2023-03-21T15:40:35.106Z,49.46
2023-03-21T15:43:19.470Z,49.14
2023-03-21T15:45:56.608Z,49.18
2023-03-21T15:48:28.691Z,49.94
2023-03-21T15:50:59.966Z,49.71
2023-03-21T15:53:26.852Z,49.18
2023-03-21T15:55:57.663Z,49.41
2023-03-21T15:58:36.121Z,49.13
2023-03-21T16:01:08.303Z,49.02
2023-03-21T16:03:37.442Z,49.21
2023-03-21T16:06:12.638Z,49.26
2023-03-21T16:08:45.957Z,49.16
2023-03-21T16:11:16.050Z,49.02
2023-03-21T16:13:43.055Z,49.78
2023-03-21T16:16:19.913Z,49.93
2023-03-21T16:18:47.260Z,49.57
2023-03-21T16:21:16.997Z,49.91
2023-03-21T16:23:44.689Z,49.96
2023-03-21T16:26:17.182Z,50.11
2023-03-21T16:28:45.453Z,49.30
2023-03-21T16:31:15.766Z,49.15
2023-03-21T16:33:43.161Z,49.44
2023-03-21T16:36:31.881Z,50.10
2023-03-21T16:38:59.381Z,50.19
2023-03-21T16:41:27.702Z,50.36
2023-03-21T16:43:54.864Z,50.09
2023-03-21T16:46:24.563Z,49.80
2023-03-21T16:48:56.397Z,50.00
2023-03-21T16:51:27.061Z,49.47
2023-03-21T16:53:53.802Z,49.84
2023-03-21T16:56:30.166Z,50.36
2023-03-21T16:58:58.113Z,50.28
2023-03-21T17:01:29.879Z,51.04
2023-03-21T17:04:00.289Z,50.60
2023-03-21T17:06:29.554Z,51.13
2023-03-21T17:08:57.877Z,51.13
2023-03-21T17:11:31.309Z,51.10
2023-03-21T17:13:57.963Z,51.04
2023-03-21T17:16:27.033Z,51.70
2023-03-21T17:18:54.240Z,51.69
2023-03-21T17:21:26.096Z,52.00
2023-03-21T17:23:53.425Z,52.94
2023-03-21T17:26:26.560Z,52.68
2023-03-21T17:28:55.466Z,52.63
2023-03-21T17:31:24.542Z,52.99
2023-03-21T17:33:51.466Z,52.77
2023-03-21T17:36:24.573Z,52.71
2023-03-21T17:38:52.857Z,53.36
2023-03-21T17:41:21.063Z,53.32
2023-03-21T17:43:47.896Z,53.26
2023-03-21T17:46:17.339Z,53.70
2023-03-21T17:48:45.518Z,53.90
2023-03-21T17:51:16.338Z,53.85
2023-03-21T17:53:44.852Z,54.03
2023-03-21T17:56:27.036Z,54.22
2023-03-21T17:58:54.346Z,54.37
2023-03-21T18:01:21.502Z,54.87
2023-03-21T18:03:48.252Z,54.71
2023-03-21T18:06:21.601Z,54.97
2023-03-21T18:08:49.183Z,55.83
2023-03-21T18:11:16.979Z,56.02
2023-03-21T18:13:44.666Z,56.01
2023-03-21T18:16:29.683Z,56.11
2023-03-21T18:18:56.775Z,56.37
2023-03-21T18:21:26.249Z,56.87
2023-03-21T18:23:55.525Z,56.96
2023-03-21T18:26:24.027Z,56.90
2023-03-21T18:29:36.652Z,57.25
2023-03-21T18:31:37.859Z,57.18
2023-03-21T18:34:04.809Z,57.27
2023-03-21T18:36:31.693Z,57.83
2023-03-21T18:38:58.846Z,57.73
2023-03-21T18:41:25.961Z,57.52
2023-03-21T18:44:01.256Z,57.89
2023-03-21T18:46:32.393Z,57.70
2023-03-21T18:49:12.996Z,58.03
2023-03-21T18:51:47.011Z,58.61
2023-03-21T18:54:13.732Z,58.76
2023-03-21T18:59:28.985Z,59.22
2023-03-21T19:01:55.723Z,59.76
2023-03-21T19:04:29.704Z,59.78
2023-03-21T19:06:58.417Z,59.98
2023-03-21T19:09:31.192Z,60.51
2023-03-21T19:11:58.864Z,60.44
2023-03-21T19:14:25.546Z,60.30
2023-03-21T19:19:41.035Z,60.67
2023-03-21T19:22:07.765Z,60.71
2023-03-21T19:24:34.505Z,60.67
2023-03-21T19:27:01.168Z,60.94
2023-03-21T19:29:27.840Z,60.86
2023-03-21T19:31:54.686Z,61.07
2023-03-21T19:34:21.348Z,61.09
2023-03-21T19:36:52.091Z,60.92
2023-03-21T19:39:22.189Z,60.80
2023-03-21T19:41:50.200Z,61.28
2023-03-21T19:44:17.753Z,61.37
2023-03-21T19:46:44.409Z,61.43
2023-03-21T19:49:11.203Z,61.60
2023-03-21T19:51:38.072Z,61.69
2023-03-21T19:54:05.953Z,62.03
2023-03-21T19:56:34.350Z,62.12
2023-03-21T19:59:03.122Z,62.41
2023-03-21T20:01:32.347Z,62.21
2023-03-21T20:03:59.819Z,62.51
2023-03-21T20:06:27.247Z,62.78
2023-03-21T20:11:41.408Z,62.77
2023-03-21T20:14:08.453Z,62.86
2023-03-21T20:16:36.709Z,63.40
2023-03-21T20:19:08.944Z,63.34
2023-03-21T20:21:46.120Z,63.54
2023-03-21T20:24:16.756Z,63.42
2023-03-21T20:26:45.148Z,64.02
2023-03-21T20:30:07.030Z,63.80
2023-03-21T20:31:59.655Z,63.91
2023-03-21T20:34:26.662Z,63.86
2023-03-21T20:36:54.015Z,64.24
2023-03-21T20:39:20.835Z,64.22
2023-03-21T20:41:47.522Z,64.26
2023-03-21T20:44:45.207Z,64.39
2023-03-21T20:47:00.820Z,64.69
2023-03-21T20:49:28.495Z,64.68
2023-03-21T20:54:43.531Z,64.88
2023-03-21T20:57:10.719Z,64.60
2023-03-21T20:59:37.605Z,64.16
2023-03-21T21:02:05.291Z,63.75
2023-03-21T21:04:49.801Z,63.69
2023-03-21T21:07:22.386Z,63.61
2023-03-21T21:09:49.878Z,63.51
2023-03-21T21:12:19.061Z,63.65
2023-03-21T21:14:46.730Z,63.66
2023-03-21T21:20:20.336Z,63.31
2023-03-21T21:23:04.112Z,63.37
2023-03-21T21:25:34.871Z,63.31
2023-03-21T21:28:02.571Z,63.44
2023-03-21T21:30:31.533Z,62.86
2023-03-21T21:33:00.635Z,62.86
2023-03-21T21:35:27.377Z,63.22
2023-03-21T21:37:54.148Z,63.03
2023-03-21T21:40:23.281Z,62.85
2023-03-21T21:42:50.154Z,63.04
2023-03-21T21:45:18.212Z,63.32
2023-03-21T21:47:46.263Z,63.03
2023-03-21T21:50:13.730Z,63.58
2023-03-21T21:52:43.505Z,63.31
2023-03-21T21:55:10.418Z,63.35
2023-03-21T21:57:37.490Z,63.45
2023-03-21T22:00:06.999Z,63.65
2023-03-21T22:02:42.885Z,63.56
2023-03-21T22:05:10.574Z,63.65
2023-03-21T22:07:37.981Z,63.01
2023-03-21T22:10:05.509Z,62.98
2023-03-21T22:12:32.376Z,62.82
2023-03-21T22:14:59.004Z,62.66
2023-03-21T22:17:25.660Z,62.22
2023-03-21T22:20:04.653Z,62.26
2023-03-21T22:22:36.287Z,62.42
2023-03-21T22:25:08.572Z,62.29
2023-03-21T22:27:36.012Z,62.20
2023-03-21T22:30:04.430Z,62.07
2023-03-21T22:32:32.380Z,61.87
2023-03-21T22:34:59.018Z,61.92
2023-03-21T22:37:25.927Z,61.98
2023-03-21T22:39:52.686Z,61.92
2023-03-21T22:42:19.333Z,61.96
2023-03-21T22:44:46.016Z,62.23
2023-03-21T22:47:12.713Z,61.93
2023-03-21T22:49:42.357Z,62.21
2023-03-21T22:52:10.694Z,62.27
2023-03-21T22:54:37.732Z,62.39
2023-03-21T22:57:06.703Z,62.03
2023-03-21T22:59:33.315Z,62.12
2023-03-21T23:02:00.630Z,61.82
2023-03-21T23:04:27.539Z,62.01
2023-03-21T23:06:54.547Z,61.64
2023-03-21T23:09:21.312Z,62.11
2023-03-21T23:11:49.548Z,62.24
2023-03-21T23:14:19.270Z,61.70
2023-03-21T23:16:46.261Z,61.69
2023-03-21T23:19:12.978Z,62.17
2023-03-21T23:21:40.255Z,61.84
2023-03-21T23:24:08.149Z,62.52
2023-03-21T23:26:35.233Z,62.38
2023-03-21T23:29:02.219Z,62.21
2023-03-21T23:31:29.396Z,62.12
2023-03-21T23:33:58.620Z,61.93
2023-03-21T23:36:25.426Z,62.12
2023-03-21T23:38:52.707Z,62.01
2023-03-21T23:41:22.837Z,62.53
2023-03-21T23:43:50.265Z,63.05
2023-03-21T23:46:18.438Z,63.04
2023-03-21T23:48:46.344Z,63.94
2023-03-21T23:51:16.142Z,63.79
2023-03-21T23:53:44.319Z,63.94
2023-03-21T23:56:22.578Z,63.45
2023-03-21T23:58:50.060Z,63.88
